createdAt,value
2022-07-28T00:02:20.102Z,48.89
2022-07-28T00:04:50.401Z,49.29
2022-07-28T00:07:20.608Z,49.51
2022-07-28T00:09:50.818Z,49.62
2022-07-28T00:12:21.507Z,49.56
2022-07-28T00:14:51.872Z,49.60
2022-07-28T00:17:25.178Z,49.48
2022-07-28T00:19:55.479Z,49.72
2022-07-28T00:22:25.929Z,50.24
2022-07-28T00:24:56.187Z,50.00
2022-07-28T00:27:26.569Z,49.49
2022-07-28T00:29:56.785Z,49.69
2022-07-28T00:32:29.704Z,49.69
2022-07-28T00:35:00.660Z,49.79
2022-07-28T00:37:32.661Z,50.10
2022-07-28T00:40:02.875Z,50.00
2022-07-28T00:42:33.601Z,50.30
2022-07-28T00:45:03.763Z,50.28
2022-07-28T00:47:36.673Z,50.62
2022-07-28T00:50:08.593Z,51.03
2022-07-28T00:52:39.251Z,50.71
2022-07-28T00:55:10.724Z,50.81
2022-07-28T00:57:40.993Z,50.74
2022-07-28T01:00:13.892Z,50.83
2022-07-28T01:02:48.197Z,51.10
2022-07-28T01:05:44.108Z,51.21
2022-07-28T01:08:19.255Z,51.20
2022-07-28T01:11:02.483Z,51.29
2022-07-28T01:13:42.106Z,51.67
2022-07-28T01:16:12.481Z,51.70
2022-07-28T01:18:57.298Z,51.92
2022-07-28T01:21:33.628Z,51.77
2022-07-28T01:24:25.105Z,51.73
2022-07-28T01:27:01.969Z,52.50
2022-07-28T01:29:51.953Z,52.94
2022-07-28T01:32:28.594Z,52.80
2022-07-28T01:35:05.186Z,53.19
2022-07-28T01:37:43.462Z,53.01
2022-07-28T01:40:17.842Z,52.88
2022-07-28T01:42:51.323Z,53.17
2022-07-28T01:45:23.926Z,53.19
2022-07-28T01:48:00.459Z,53.16
2022-07-28T01:50:33.186Z,53.12
2022-07-28T01:53:04.967Z,53.13
2022-07-28T01:55:37.239Z,53.48
2022-07-28T01:58:08.030Z,53.93
2022-07-28T02:00:39.695Z,53.80
2022-07-28T02:03:14.034Z,54.04
2022-07-28T02:05:46.789Z,54.24
2022-07-28T02:08:19.191Z,54.08
2022-07-28T02:11:11.292Z,53.99
2022-07-28T02:13:42.520Z,54.51
2022-07-28T02:16:15.195Z,54.63
2022-07-28T02:18:49.640Z,54.67
2022-07-28T02:21:21.454Z,54.55
2022-07-28T02:23:53.879Z,54.54
2022-07-28T02:26:32.133Z,54.99
2022-07-28T02:29:06.861Z,54.94
2022-07-28T02:31:46.971Z,55.15
2022-07-28T02:34:27.942Z,55.18
2022-07-28T02:37:02.118Z,55.32
2022-07-28T02:39:41.882Z,55.42
2022-07-28T02:42:26.262Z,55.71
2022-07-28T02:45:02.477Z,55.70
2022-07-28T02:47:42.465Z,55.66
2022-07-28T02:50:18.444Z,56.25
2022-07-28T02:52:49.937Z,56.01
2022-07-28T02:55:21.336Z,55.63
2022-07-28T02:57:56.626Z,55.71
2022-07-28T03:00:28.325Z,55.82
2022-07-28T03:02:59.812Z,56.21
2022-07-28T03:05:33.505Z,56.47
2022-07-28T03:08:03.919Z,56.63
2022-07-28T03:10:34.958Z,56.60
2022-07-28T03:13:07.303Z,56.78
2022-07-28T03:15:40.339Z,56.67
2022-07-28T03:18:11.035Z,56.92
2022-07-28T03:20:43.916Z,56.80
2022-07-28T03:23:14.706Z,56.91
2022-07-28T03:25:51.077Z,57.03
2022-07-28T03:28:24.582Z,57.06
2022-07-28T03:31:00.463Z,57.11
2022-07-28T03:33:31.317Z,57.46
2022-07-28T03:36:11.809Z,57.46
2022-07-28T03:38:48.264Z,57.54
2022-07-28T03:41:19.759Z,57.67
2022-07-28T03:43:50.956Z,57.21
2022-07-28T03:46:21.663Z,57.64
2022-07-28T03:48:52.150Z,58.13
2022-07-28T03:51:25.682Z,57.95
2022-07-28T03:53:56.077Z,58.02
2022-07-28T03:56:26.180Z,58.35
2022-07-28T03:58:56.353Z,58.32
2022-07-28T04:01:26.699Z,58.36
2022-07-28T04:03:56.979Z,57.83
2022-07-28T04:06:29.777Z,58.30
2022-07-28T04:08:59.972Z,57.85
2022-07-28T04:11:30.214Z,57.65
2022-07-28T04:14:00.511Z,57.82
2022-07-28T04:16:30.850Z,57.67
2022-07-28T04:19:01.080Z,57.66
2022-07-28T04:21:33.905Z,58.31
2022-07-28T04:24:04.088Z,57.81
2022-07-28T04:26:34.328Z,57.56
2022-07-28T04:29:04.522Z,57.16
2022-07-28T04:31:34.991Z,57.34
2022-07-28T04:34:05.132Z,57.41
2022-07-28T04:36:42.195Z,57.21
2022-07-28T04:39:14.015Z,57.21
2022-07-28T04:41:44.163Z,57.09
2022-07-28T04:44:15.459Z,56.97
2022-07-28T04:46:45.903Z,56.98
2022-07-28T04:49:16.183Z,56.66
2022-07-28T04:51:50.681Z,56.20
2022-07-28T04:54:26.357Z,56.05
2022-07-28T04:56:56.959Z,56.14
2022-07-28T04:59:27.335Z,55.89
2022-07-28T05:01:59.958Z,55.28
2022-07-28T05:04:30.232Z,55.03
2022-07-28T05:07:11.863Z,54.83
2022-07-28T05:09:43.065Z,54.67
2022-07-28T05:12:13.584Z,54.21
2022-07-28T05:14:43.896Z,54.07
2022-07-28T05:17:14.140Z,53.64
2022-07-28T05:19:44.389Z,53.23
2022-07-28T05:22:17.557Z,52.99
2022-07-28T05:24:47.737Z,52.77
2022-07-28T05:27:17.932Z,52.52
2022-07-28T05:29:48.572Z,52.62
2022-07-28T05:32:18.978Z,52.66
2022-07-28T05:34:49.360Z,52.49
2022-07-28T05:37:22.675Z,52.62
2022-07-28T05:39:53.112Z,52.59
2022-07-28T05:42:23.472Z,52.76
2022-07-28T05:44:53.693Z,52.36
2022-07-28T05:47:24.326Z,51.29
2022-07-28T05:49:54.505Z,51.64
2022-07-28T05:52:28.021Z,50.99
2022-07-28T05:54:59.182Z,50.67
2022-07-28T05:57:32.439Z,50.38
2022-07-28T06:00:06.403Z,50.12
2022-07-28T06:02:46.387Z,49.22
2022-07-28T06:05:17.571Z,49.72
2022-07-28T06:08:00.171Z,49.36
2022-07-28T06:10:58.577Z,49.32
2022-07-28T06:13:32.750Z,48.72
2022-07-28T06:16:12.970Z,48.75
2022-07-28T06:18:49.350Z,49.25
2022-07-28T06:21:22.589Z,48.64
2022-07-28T06:23:58.312Z,48.99
2022-07-28T06:26:32.916Z,47.69
2022-07-28T06:29:07.007Z,46.78
2022-07-28T06:31:37.644Z,47.09
2022-07-28T06:34:07.717Z,47.16
2022-07-28T06:36:38.032Z,45.73
2022-07-28T06:39:11.083Z,45.74
2022-07-28T06:41:43.480Z,45.51
2022-07-28T06:44:14.173Z,45.21
2022-07-28T06:46:44.782Z,44.82
2022-07-28T06:49:15.249Z,44.13
2022-07-28T06:51:45.842Z,44.49
2022-07-28T06:54:18.972Z,43.99
2022-07-28T06:56:52.110Z,43.44
2022-07-28T06:59:22.945Z,43.30
2022-07-28T07:01:53.270Z,42.94
2022-07-28T07:04:23.570Z,41.68
2022-07-28T07:06:53.777Z,41.53
2022-07-28T07:09:26.665Z,40.72
2022-07-28T07:11:56.972Z,40.26
2022-07-28T07:14:30.406Z,40.17
2022-07-28T07:17:00.685Z,40.30
2022-07-28T07:19:30.887Z,39.31
2022-07-28T07:22:01.089Z,38.19
2022-07-28T07:24:34.320Z,38.66
2022-07-28T07:27:04.558Z,37.62
2022-07-28T07:29:34.823Z,36.99
2022-07-28T07:32:10.173Z,36.75
2022-07-28T07:34:42.147Z,36.52
2022-07-28T07:37:14.729Z,36.11
2022-07-28T07:39:47.466Z,35.16
2022-07-28T07:42:18.021Z,35.76
2022-07-28T07:44:50.200Z,35.11
2022-07-28T07:47:21.915Z,34.81
2022-07-28T07:49:52.537Z,34.28
2022-07-28T07:52:22.767Z,33.61
2022-07-28T07:54:55.656Z,33.38
2022-07-28T07:57:25.856Z,33.00
2022-07-28T07:59:56.051Z,32.51
2022-07-28T08:02:26.246Z,32.42
2022-07-28T08:04:56.560Z,32.27
2022-07-28T08:07:27.076Z,28.95
2022-07-28T08:09:59.843Z,29.27
2022-07-28T08:12:30.241Z,27.58
2022-07-28T08:15:00.171Z,29.12
2022-07-28T08:17:30.483Z,28.26
2022-07-28T08:20:00.428Z,27.88
2022-07-28T08:22:30.636Z,28.56
2022-07-28T08:25:03.899Z,27.97
2022-07-28T08:27:34.067Z,27.37
2022-07-28T08:30:04.453Z,27.04
2022-07-28T08:32:34.986Z,27.10
2022-07-28T08:35:31.616Z,25.98
2022-07-28T08:37:55.086Z,25.31
2022-07-28T08:40:28.235Z,25.88
2022-07-28T08:43:04.728Z,25.22
2022-07-28T08:45:39.385Z,24.81
2022-07-28T08:48:13.667Z,23.53
2022-07-28T08:50:45.346Z,23.26
2022-07-28T08:53:17.908Z,22.41
2022-07-28T08:55:52.011Z,20.72
2022-07-28T08:58:22.944Z,20.35
2022-07-28T09:00:53.327Z,20.41
2022-07-28T09:03:23.936Z,20.05
2022-07-28T09:05:54.456Z,20.01
2022-07-28T09:08:24.878Z,19.89
2022-07-28T09:10:57.920Z,18.96
2022-07-28T09:13:28.195Z,19.35
2022-07-28T09:15:59.041Z,18.89
2022-07-28T09:18:29.509Z,18.42
2022-07-28T09:20:59.782Z,18.65
2022-07-28T09:23:46.272Z,18.92
2022-07-28T09:26:20.808Z,19.26
2022-07-28T09:28:54.135Z,18.60
2022-07-28T09:31:26.282Z,18.63
2022-07-28T09:34:03.164Z,18.30
2022-07-28T09:36:40.440Z,17.67
2022-07-28T09:39:11.207Z,17.36
2022-07-28T09:41:58.061Z,17.38
2022-07-28T09:44:29.794Z,17.58
2022-07-28T09:47:00.406Z,18.21
2022-07-28T09:49:45.240Z,17.93
2022-07-28T09:52:16.010Z,17.79
2022-07-28T09:55:03.404Z,17.60
2022-07-28T09:57:38.029Z,17.25
2022-07-28T10:00:14.233Z,17.87
2022-07-28T10:02:53.233Z,17.45
2022-07-28T10:05:23.656Z,18.07
2022-07-28T10:07:53.963Z,18.01
2022-07-28T10:10:24.739Z,17.52
2022-07-28T10:13:08.640Z,17.31
2022-07-28T10:15:51.337Z,17.35
2022-07-28T10:18:21.610Z,16.56
2022-07-28T10:20:52.045Z,17.22
2022-07-28T10:23:23.480Z,16.72
2022-07-28T10:25:55.389Z,17.28
2022-07-28T10:28:28.824Z,17.22
2022-07-28T10:31:02.432Z,16.72
2022-07-28T10:33:35.511Z,17.58
2022-07-28T10:36:06.493Z,17.02
2022-07-28T10:38:38.855Z,17.63
2022-07-28T10:41:11.839Z,17.59
2022-07-28T10:43:45.652Z,17.00
2022-07-28T10:46:17.074Z,17.54
2022-07-28T10:48:47.964Z,17.46
2022-07-28T10:51:18.474Z,17.87
2022-07-28T10:53:56.146Z,16.84
2022-07-28T10:56:41.896Z,16.34
2022-07-28T10:59:32.183Z,17.22
2022-07-28T11:02:02.281Z,16.61
2022-07-28T11:05:01.993Z,15.72
2022-07-28T11:07:42.413Z,15.21
2022-07-28T11:10:20.564Z,15.58
2022-07-28T11:12:56.189Z,15.30
2022-07-28T11:15:35.783Z,15.32
2022-07-28T11:18:09.606Z,15.48
2022-07-28T11:21:16.613Z,14.73
2022-07-28T11:23:58.376Z,14.30
2022-07-28T11:26:39.829Z,14.72
2022-07-28T11:29:27.610Z,14.89
2022-07-28T11:32:08.487Z,14.36
2022-07-28T11:35:11.335Z,13.77
2022-07-28T11:38:15.774Z,13.86
2022-07-28T11:40:48.081Z,14.13
2022-07-28T11:43:37.000Z,14.11
2022-07-28T11:46:41.140Z,14.14
2022-07-28T11:49:31.865Z,13.89
2022-07-28T11:52:20.887Z,13.82
2022-07-28T11:54:55.155Z,13.19
2022-07-28T11:57:26.937Z,13.23
2022-07-28T12:00:01.092Z,13.48
2022-07-28T12:02:34.690Z,13.92
2022-07-28T12:05:15.735Z,13.97
2022-07-28T12:07:49.902Z,13.76
2022-07-28T12:10:55.258Z,13.37
2022-07-28T12:13:30.935Z,13.26
2022-07-28T12:16:01.187Z,13.50
2022-07-28T12:18:32.033Z,13.89
2022-07-28T12:21:05.472Z,12.67
2022-07-28T12:23:38.929Z,13.90
2022-07-28T12:26:15.671Z,13.72
2022-07-28T12:28:56.041Z,13.09
2022-07-28T12:31:30.096Z,13.08
2022-07-28T12:34:00.397Z,13.72
2022-07-28T12:36:33.419Z,13.67
2022-07-28T12:39:09.480Z,13.19
2022-07-28T12:41:42.928Z,13.10
2022-07-28T12:44:14.301Z,12.97
2022-07-28T12:46:49.381Z,12.59
2022-07-28T12:49:25.640Z,12.57
2022-07-28T12:52:00.830Z,12.26
2022-07-28T12:54:39.473Z,12.25
2022-07-28T12:57:09.842Z,12.21
2022-07-28T12:59:42.473Z,11.52
2022-07-28T13:02:13.071Z,11.45
2022-07-28T13:04:47.099Z,11.95
2022-07-28T13:07:30.421Z,11.64
2022-07-28T13:10:06.834Z,12.18
2022-07-28T13:12:43.715Z,11.87
2022-07-28T13:15:19.275Z,12.30
2022-07-28T13:17:57.189Z,11.62
2022-07-28T13:20:28.166Z,12.30
2022-07-28T13:23:01.207Z,11.91
2022-07-28T13:25:31.688Z,12.24
2022-07-28T13:28:02.743Z,12.14
2022-07-28T13:30:34.909Z,12.59
2022-07-28T13:33:05.143Z,11.85
2022-07-28T13:35:35.337Z,12.71
2022-07-28T13:38:08.252Z,12.19
2022-07-28T13:40:38.985Z,12.66
2022-07-28T13:43:11.182Z,12.87
2022-07-28T13:45:41.716Z,12.43
2022-07-28T13:48:12.887Z,12.50
2022-07-28T13:50:43.104Z,12.48
2022-07-28T13:53:30.862Z,12.38
2022-07-28T13:56:01.332Z,12.06
2022-07-28T13:58:33.860Z,11.58
2022-07-28T14:01:04.885Z,11.96
2022-07-28T14:03:55.975Z,11.35
2022-07-28T14:06:26.317Z,11.58
2022-07-28T14:09:04.290Z,11.74
2022-07-28T14:11:36.458Z,12.20
2022-07-28T14:14:07.036Z,12.24
2022-07-28T14:16:37.350Z,12.60
2022-07-28T14:19:07.656Z,12.01
2022-07-28T14:21:37.917Z,12.12
2022-07-28T14:24:12.290Z,12.13
2022-07-28T14:26:42.758Z,12.18
2022-07-28T14:29:13.004Z,12.22
2022-07-28T14:31:43.572Z,12.55
2022-07-28T14:34:16.858Z,12.73
2022-07-28T14:36:47.447Z,12.64
2022-07-28T14:39:25.241Z,13.09
2022-07-28T14:41:55.481Z,12.87
2022-07-28T14:44:26.800Z,13.11
2022-07-28T14:46:57.344Z,13.03
2022-07-28T14:49:28.180Z,12.99
2022-07-28T14:51:59.555Z,13.61
2022-07-28T14:54:32.865Z,13.81
2022-07-28T14:57:03.253Z,13.58
2022-07-28T14:59:33.686Z,13.87
2022-07-28T15:02:09.265Z,13.96
2022-07-28T15:04:39.623Z,13.51
2022-07-28T15:07:12.056Z,13.76
2022-07-28T15:09:50.127Z,14.39
2022-07-28T15:12:24.341Z,14.63
2022-07-28T15:14:54.513Z,14.54
2022-07-28T15:17:24.768Z,15.25
2022-07-28T15:19:56.318Z,15.35
2022-07-28T15:22:26.769Z,15.55
2022-07-28T15:24:59.968Z,15.84
2022-07-28T15:27:33.748Z,16.09
2022-07-28T15:30:04.427Z,16.27
2022-07-28T15:32:54.210Z,16.35
2022-07-28T15:35:27.830Z,16.67
2022-07-28T15:37:59.207Z,17.50
2022-07-28T15:40:32.377Z,17.92
2022-07-28T15:43:02.810Z,17.45
2022-07-28T15:45:33.408Z,17.81
2022-07-28T15:48:04.885Z,18.37
2022-07-28T15:50:35.286Z,18.76
2022-07-28T15:53:05.666Z,18.92
2022-07-28T15:55:39.018Z,19.06
2022-07-28T15:58:09.596Z,19.11
2022-07-28T16:00:40.460Z,19.78
2022-07-28T16:03:11.669Z,19.69
2022-07-28T16:05:44.166Z,20.62
2022-07-28T16:08:14.425Z,20.64
2022-07-28T16:10:47.674Z,20.53
2022-07-28T16:13:22.529Z,21.13
2022-07-28T16:15:58.860Z,21.04
2022-07-28T16:18:29.134Z,20.71
2022-07-28T16:20:59.357Z,21.03
2022-07-28T16:23:29.819Z,21.04
2022-07-28T16:26:03.029Z,21.15
2022-07-28T16:28:34.342Z,20.64
2022-07-28T16:31:04.781Z,21.31
2022-07-28T16:33:35.635Z,20.94
2022-07-28T16:36:07.572Z,22.03
2022-07-28T16:38:38.004Z,21.83
2022-07-28T16:41:11.556Z,22.74
2022-07-28T16:43:46.769Z,22.04
2022-07-28T16:46:17.207Z,22.13
2022-07-28T16:48:47.539Z,22.19
2022-07-28T16:51:17.718Z,21.83
2022-07-28T16:53:51.997Z,21.98
2022-07-28T16:56:24.898Z,22.14
2022-07-28T16:58:55.088Z,21.70
2022-07-28T17:01:25.288Z,22.31
2022-07-28T17:03:55.578Z,22.23
2022-07-28T17:06:25.848Z,22.29
2022-07-28T17:08:56.058Z,22.36
2022-07-28T17:11:28.917Z,22.78
2022-07-28T17:13:59.062Z,22.36
2022-07-28T17:16:29.044Z,23.06
2022-07-28T17:18:59.665Z,22.42
2022-07-28T17:21:29.860Z,22.44
2022-07-28T17:24:00.102Z,22.72
2022-07-28T17:29:25.363Z,23.34
2022-07-28T17:31:55.487Z,23.02
2022-07-28T17:34:25.420Z,22.82
2022-07-28T17:36:55.720Z,23.37
2022-07-28T17:39:25.962Z,23.48
2022-07-28T17:41:58.519Z,23.84
2022-07-28T17:44:28.772Z,23.82
2022-07-28T17:47:03.808Z,23.65
2022-07-28T17:49:34.086Z,23.78
2022-07-28T17:52:05.074Z,23.58
2022-07-28T17:54:56.085Z,23.69
2022-07-28T17:57:30.592Z,23.91
2022-07-28T18:00:10.455Z,24.25
2022-07-28T18:02:42.325Z,24.38
2022-07-28T18:05:13.687Z,24.45
2022-07-28T18:07:50.241Z,24.15
2022-07-28T18:10:25.087Z,24.61
2022-07-28T18:13:00.216Z,25.38
2022-07-28T18:15:32.485Z,25.10
2022-07-28T18:18:02.714Z,25.51
2022-07-28T18:20:36.128Z,25.10
2022-07-28T18:23:07.013Z,25.53
2022-07-28T18:25:43.473Z,25.39
2022-07-28T18:28:19.452Z,25.31
2022-07-28T18:30:50.581Z,25.40
2022-07-28T18:33:23.354Z,25.39
2022-07-28T18:35:53.644Z,25.31
2022-07-28T18:38:23.866Z,25.30
2022-07-28T18:40:54.099Z,25.69
2022-07-28T18:43:26.684Z,25.80
2022-07-28T18:45:56.996Z,26.01
2022-07-28T18:48:27.352Z,26.04
2022-07-28T18:50:58.678Z,26.04
2022-07-28T18:53:29.476Z,26.16
2022-07-28T18:56:01.825Z,26.39
2022-07-28T18:58:34.666Z,26.57
2022-07-28T19:01:04.903Z,26.57
2022-07-28T19:03:40.758Z,26.30
2022-07-28T19:06:11.200Z,26.45
2022-07-28T19:08:41.171Z,26.85
2022-07-28T19:11:11.480Z,26.38
2022-07-28T19:13:44.457Z,26.82
2022-07-28T19:16:14.785Z,27.05
2022-07-28T19:18:44.958Z,27.19
2022-07-28T19:21:17.024Z,26.96
2022-07-28T19:23:48.540Z,27.34
2022-07-28T19:26:18.823Z,27.43
2022-07-28T19:28:51.652Z,27.10
2022-07-28T19:31:21.970Z,27.49
2022-07-28T19:33:52.332Z,27.51
2022-07-28T19:36:22.630Z,27.64
2022-07-28T19:38:52.902Z,27.83
2022-07-28T19:41:23.320Z,27.75
2022-07-28T19:43:56.166Z,27.98
2022-07-28T19:46:26.662Z,27.92
2022-07-28T19:48:57.469Z,27.78
2022-07-28T19:51:28.693Z,28.16
2022-07-28T19:53:59.711Z,28.32
2022-07-28T19:56:31.559Z,28.02
2022-07-28T19:59:04.732Z,28.39
2022-07-28T20:01:34.991Z,28.40
2022-07-28T20:04:05.617Z,28.62
2022-07-28T20:06:36.591Z,28.96
2022-07-28T20:09:08.084Z,29.18
2022-07-28T20:11:39.151Z,29.17
2022-07-28T20:14:12.267Z,29.38
2022-07-28T20:16:42.879Z,29.34
2022-07-28T20:19:16.782Z,29.29
2022-07-28T20:21:47.378Z,29.49
2022-07-28T20:24:19.984Z,29.49
2022-07-28T20:26:50.202Z,29.79
2022-07-28T20:29:23.083Z,29.86
2022-07-28T20:31:53.277Z,30.11
2022-07-28T20:34:23.509Z,30.23
2022-07-28T20:36:55.266Z,30.03
2022-07-28T20:39:43.893Z,29.95
2022-07-28T20:42:15.524Z,30.29
2022-07-28T20:44:48.150Z,30.38
2022-07-28T20:47:18.403Z,30.32
2022-07-28T20:49:48.581Z,30.28
2022-07-28T20:52:18.821Z,30.51
2022-07-28T20:54:53.805Z,30.35
2022-07-28T20:57:24.700Z,30.38
2022-07-28T20:59:57.791Z,30.52
2022-07-28T21:02:28.178Z,30.73
2022-07-28T21:04:58.495Z,31.08
2022-07-28T21:08:05.411Z,30.64
2022-07-28T21:10:19.038Z,31.25
2022-07-28T21:12:49.937Z,31.27
2022-07-28T21:15:23.969Z,31.27
2022-07-28T21:17:57.255Z,30.87
2022-07-28T21:20:28.202Z,31.06
2022-07-28T21:22:58.511Z,31.17
2022-07-28T21:25:28.671Z,31.18
2022-07-28T21:28:11.295Z,31.08
2022-07-28T21:30:44.137Z,31.06
2022-07-28T21:33:22.630Z,31.29
2022-07-28T21:35:53.316Z,31.10
2022-07-28T21:38:23.646Z,30.80
2022-07-28T21:40:53.790Z,30.97
2022-07-28T21:43:24.046Z,31.54
2022-07-28T21:45:56.884Z,31.30
2022-07-28T21:48:27.074Z,31.75
2022-07-28T21:50:58.163Z,31.76
2022-07-28T21:53:28.788Z,31.76
2022-07-28T21:55:58.724Z,32.10
2022-07-28T21:58:28.844Z,31.57
2022-07-28T22:01:02.884Z,31.57
2022-07-28T22:03:33.331Z,31.27
2022-07-28T22:06:03.936Z,31.59
2022-07-28T22:08:34.561Z,31.32
2022-07-28T22:11:04.960Z,31.19
2022-07-28T22:13:35.721Z,31.15
2022-07-28T22:16:08.898Z,31.22
2022-07-28T22:18:39.086Z,31.33
2022-07-28T22:21:09.534Z,31.59
2022-07-28T22:23:40.078Z,31.35
2022-07-28T22:26:10.369Z,31.69
2022-07-28T22:28:40.630Z,31.68
2022-07-28T22:31:13.527Z,31.76
2022-07-28T22:33:43.827Z,32.02
2022-07-28T22:36:14.237Z,31.87
2022-07-28T22:38:44.483Z,32.15
2022-07-28T22:41:14.751Z,32.11
2022-07-28T22:43:44.946Z,32.44
2022-07-28T22:46:17.839Z,33.12
2022-07-28T22:49:04.047Z,32.76
2022-07-28T22:51:34.908Z,33.32
2022-07-28T22:54:05.057Z,33.44
2022-07-28T22:56:37.273Z,33.08
2022-07-28T22:59:08.213Z,33.23
2022-07-28T23:01:41.064Z,34.20
2022-07-28T23:04:11.234Z,34.51
2022-07-28T23:06:44.842Z,34.35
2022-07-28T23:09:15.224Z,34.05
2022-07-28T23:11:55.628Z,34.32
2022-07-28T23:14:26.674Z,34.41
2022-07-28T23:16:59.608Z,34.22
2022-07-28T23:19:29.862Z,34.80
2022-07-28T23:22:00.452Z,34.95
2022-07-28T23:24:30.648Z,34.88
2022-07-28T23:27:00.862Z,34.70
2022-07-28T23:29:31.002Z,34.92
2022-07-28T23:32:04.127Z,35.03
2022-07-28T23:34:34.305Z,34.80
2022-07-28T23:37:04.777Z,35.49
2022-07-28T23:39:34.963Z,36.11
2022-07-28T23:42:05.810Z,36.20
2022-07-28T23:44:36.045Z,36.08
2022-07-28T23:47:09.303Z,36.29
2022-07-28T23:49:39.541Z,36.64
2022-07-28T23:52:09.730Z,37.23
2022-07-28T23:54:40.322Z,36.99
2022-07-28T23:57:10.261Z,37.08
2022-07-28T23:59:40.491Z,36.92
